sensor_id;sensor_type;location;lat;lon;timestamp;P1;durP1;ratioP1;P2;durP2;ratioP2
52898;SDS011;38763;53.096;6.062;2023-05-07T00:02:21;22.77;;;13.13;;
52898;SDS011;38763;53.096;6.062;2023-05-07T00:04:47;21.10;;;13.73;;
52898;SDS011;38763;53.096;6.062;2023-05-07T00:07:14;22.98;;;14.38;;
52898;SDS011;38763;53.096;6.062;2023-05-07T00:09:40;25.05;;;15.27;;
52898;SDS011;38763;53.096;6.062;2023-05-07T00:12:05;25.30;;;14.75;;
52898;SDS011;38763;53.096;6.062;2023-05-07T00:14:32;24.00;;;13.57;;
52898;SDS011;38763;53.096;6.062;2023-05-07T00:16:57;22.23;;;13.60;;
52898;SDS011;38763;53.096;6.062;2023-05-07T00:19:23;23.38;;;14.23;;
52898;SDS011;38763;53.096;6.062;2023-05-07T00:21:49;22.25;;;14.05;;
52898;SDS011;38763;53.096;6.062;2023-05-07T00:24:15;22.77;;;14.38;;
52898;SDS011;38763;53.096;6.062;2023-05-07T00:26:40;21.92;;;14.65;;
52898;SDS011;38763;53.096;6.062;2023-05-07T00:29:06;25.55;;;15.45;;
52898;SDS011;38763;53.096;6.062;2023-05-07T00:31:32;24.20;;;14.70;;
52898;SDS011;38763;53.096;6.062;2023-05-07T00:33:57;25.75;;;15.18;;
52898;SDS011;38763;53.096;6.062;2023-05-07T00:36:23;25.08;;;15.02;;
52898;SDS011;38763;53.096;6.062;2023-05-07T00:38:48;24.98;;;14.73;;
52898;SDS011;38763;53.096;6.062;2023-05-07T00:41:14;24.58;;;14.95;;
52898;SDS011;38763;53.096;6.062;2023-05-07T00:43:40;24.95;;;15.40;;
52898;SDS011;38763;53.096;6.062;2023-05-07T00:46:06;25.85;;;15.43;;
52898;SDS011;38763;53.096;6.062;2023-05-07T00:48:31;26.02;;;16.50;;
52898;SDS011;38763;53.096;6.062;2023-05-07T00:50:57;25.35;;;16.13;;
52898;SDS011;38763;53.096;6.062;2023-05-07T00:53:23;23.15;;;14.35;;
52898;SDS011;38763;53.096;6.062;2023-05-07T00:55:49;25.60;;;16.50;;
52898;SDS011;38763;53.096;6.062;2023-05-07T00:58:16;25.02;;;16.02;;
52898;SDS011;38763;53.096;6.062;2023-05-07T01:00:41;25.27;;;15.27;;
52898;SDS011;38763;53.096;6.062;2023-05-07T01:03:07;27.45;;;15.48;;
52898;SDS011;38763;53.096;6.062;2023-05-07T01:05:33;24.65;;;16.08;;
52898;SDS011;38763;53.096;6.062;2023-05-07T01:07:59;28.17;;;16.23;;
52898;SDS011;38763;53.096;6.062;2023-05-07T01:10:27;25.15;;;16.45;;
52898;SDS011;38763;53.096;6.062;2023-05-07T01:12:55;29.33;;;16.63;;
52898;SDS011;38763;53.096;6.062;2023-05-07T01:15:23;23.88;;;15.65;;
52898;SDS011;38763;53.096;6.062;2023-05-07T01:17:49;24.95;;;16.60;;
52898;SDS011;38763;53.096;6.062;2023-05-07T01:20:15;25.50;;;16.48;;
52898;SDS011;38763;53.096;6.062;2023-05-07T01:22:40;27.45;;;16.00;;
52898;SDS011;38763;53.096;6.062;2023-05-07T01:25:08;22.95;;;15.27;;
52898;SDS011;38763;53.096;6.062;2023-05-07T01:27:34;29.48;;;16.95;;
52898;SDS011;38763;53.096;6.062;2023-05-07T01:30:00;35.05;;;18.08;;
52898;SDS011;38763;53.096;6.062;2023-05-07T01:32:43;28.83;;;17.73;;
52898;SDS011;38763;53.096;6.062;2023-05-07T01:35:13;30.88;;;17.77;;
52898;SDS011;38763;53.096;6.062;2023-05-07T01:37:44;31.50;;;16.73;;
52898;SDS011;38763;53.096;6.062;2023-05-07T01:40:11;31.65;;;18.67;;
52898;SDS011;38763;53.096;6.062;2023-05-07T01:42:37;27.15;;;16.08;;
52898;SDS011;38763;53.096;6.062;2023-05-07T01:45:03;30.25;;;18.52;;
52898;SDS011;38763;53.096;6.062;2023-05-07T01:47:29;32.10;;;18.38;;
52898;SDS011;38763;53.096;6.062;2023-05-07T01:49:55;31.45;;;18.90;;
52898;SDS011;38763;53.096;6.062;2023-05-07T01:52:21;34.17;;;19.90;;
52898;SDS011;38763;53.096;6.062;2023-05-07T01:54:47;35.38;;;19.42;;
52898;SDS011;38763;53.096;6.062;2023-05-07T01:57:13;29.92;;;17.90;;
52898;SDS011;38763;53.096;6.062;2023-05-07T01:59:38;36.53;;;20.25;;
52898;SDS011;38763;53.096;6.062;2023-05-07T02:02:04;35.53;;;21.50;;
52898;SDS011;38763;53.096;6.062;2023-05-07T02:04:30;37.83;;;21.65;;
52898;SDS011;38763;53.096;6.062;2023-05-07T02:06:55;36.83;;;20.10;;
52898;SDS011;38763;53.096;6.062;2023-05-07T02:09:21;30.65;;;18.20;;
52898;SDS011;38763;53.096;6.062;2023-05-07T02:11:48;37.35;;;22.00;;
52898;SDS011;38763;53.096;6.062;2023-05-07T02:14:13;35.17;;;18.42;;
52898;SDS011;38763;53.096;6.062;2023-05-07T02:16:39;31.35;;;17.08;;
52898;SDS011;38763;53.096;6.062;2023-05-07T02:19:04;35.20;;;21.50;;
52898;SDS011;38763;53.096;6.062;2023-05-07T02:21:30;37.35;;;22.88;;
52898;SDS011;38763;53.096;6.062;2023-05-07T02:23:56;38.92;;;21.77;;
52898;SDS011;38763;53.096;6.062;2023-05-07T02:26:21;36.67;;;21.75;;
52898;SDS011;38763;53.096;6.062;2023-05-07T02:28:47;35.50;;;20.10;;
52898;SDS011;38763;53.096;6.062;2023-05-07T02:31:13;37.13;;;21.85;;
52898;SDS011;38763;53.096;6.062;2023-05-07T02:33:38;29.02;;;17.58;;
52898;SDS011;38763;53.096;6.062;2023-05-07T02:36:07;39.25;;;22.80;;
52898;SDS011;38763;53.096;6.062;2023-05-07T02:38:34;35.20;;;22.10;;
52898;SDS011;38763;53.096;6.062;2023-05-07T02:41:00;41.20;;;23.52;;
52898;SDS011;38763;53.096;6.062;2023-05-07T02:43:25;39.50;;;22.67;;
52898;SDS011;38763;53.096;6.062;2023-05-07T02:46:04;37.70;;;22.23;;
52898;SDS011;38763;53.096;6.062;2023-05-07T02:48:31;39.47;;;23.10;;
52898;SDS011;38763;53.096;6.062;2023-05-07T02:50:57;32.10;;;18.98;;
52898;SDS011;38763;53.096;6.062;2023-05-07T02:53:23;42.50;;;23.67;;
52898;SDS011;38763;53.096;6.062;2023-05-07T02:55:51;37.60;;;23.45;;
52898;SDS011;38763;53.096;6.062;2023-05-07T02:58:21;38.75;;;23.80;;
52898;SDS011;38763;53.096;6.062;2023-05-07T03:00:46;35.60;;;23.40;;
52898;SDS011;38763;53.096;6.062;2023-05-07T03:03:12;41.75;;;22.40;;
52898;SDS011;38763;53.096;6.062;2023-05-07T03:05:38;34.55;;;21.52;;
52898;SDS011;38763;53.096;6.062;2023-05-07T03:08:04;37.17;;;22.95;;
52898;SDS011;38763;53.096;6.062;2023-05-07T03:10:30;41.50;;;25.33;;
52898;SDS011;38763;53.096;6.062;2023-05-07T03:12:55;39.92;;;24.80;;
52898;SDS011;38763;53.096;6.062;2023-05-07T03:15:21;36.63;;;20.98;;
52898;SDS011;38763;53.096;6.062;2023-05-07T03:17:47;33.80;;;20.85;;
52898;SDS011;38763;53.096;6.062;2023-05-07T03:20:13;38.15;;;23.80;;
52898;SDS011;38763;53.096;6.062;2023-05-07T03:22:39;44.72;;;24.88;;
52898;SDS011;38763;53.096;6.062;2023-05-07T03:25:06;38.58;;;21.88;;
52898;SDS011;38763;53.096;6.062;2023-05-07T03:27:32;39.38;;;21.90;;
52898;SDS011;38763;53.096;6.062;2023-05-07T03:29:58;37.25;;;22.10;;
52898;SDS011;38763;53.096;6.062;2023-05-07T03:32:24;39.85;;;24.20;;
52898;SDS011;38763;53.096;6.062;2023-05-07T03:34:50;38.75;;;22.17;;
52898;SDS011;38763;53.096;6.062;2023-05-07T03:37:15;37.55;;;19.52;;
52898;SDS011;38763;53.096;6.062;2023-05-07T03:39:41;38.17;;;22.73;;
52898;SDS011;38763;53.096;6.062;2023-05-07T03:42:07;37.65;;;22.08;;
52898;SDS011;38763;53.096;6.062;2023-05-07T03:44:32;41.92;;;24.38;;
52898;SDS011;38763;53.096;6.062;2023-05-07T03:46:58;37.78;;;22.05;;
52898;SDS011;38763;53.096;6.062;2023-05-07T03:49:23;41.10;;;23.23;;
52898;SDS011;38763;53.096;6.062;2023-05-07T03:51:49;42.38;;;24.08;;
52898;SDS011;38763;53.096;6.062;2023-05-07T03:54:15;39.22;;;24.20;;
52898;SDS011;38763;53.096;6.062;2023-05-07T03:56:40;40.75;;;23.80;;
52898;SDS011;38763;53.096;6.062;2023-05-07T03:59:06;42.67;;;24.27;;
52898;SDS011;38763;53.096;6.062;2023-05-07T04:01:31;45.90;;;25.42;;
52898;SDS011;38763;53.096;6.062;2023-05-07T04:03:57;39.85;;;22.70;;
52898;SDS011;38763;53.096;6.062;2023-05-07T04:06:23;37.60;;;22.60;;
52898;SDS011;38763;53.096;6.062;2023-05-07T04:08:49;44.85;;;26.77;;
52898;SDS011;38763;53.096;6.062;2023-05-07T04:11:15;45.90;;;27.05;;
52898;SDS011;38763;53.096;6.062;2023-05-07T04:13:40;42.90;;;24.25;;
52898;SDS011;38763;53.096;6.062;2023-05-07T04:16:06;45.75;;;25.65;;
52898;SDS011;38763;53.096;6.062;2023-05-07T04:18:33;43.72;;;24.83;;
52898;SDS011;38763;53.096;6.062;2023-05-07T04:20:58;49.53;;;28.10;;
52898;SDS011;38763;53.096;6.062;2023-05-07T04:23:24;48.55;;;26.00;;
52898;SDS011;38763;53.096;6.062;2023-05-07T04:25:50;46.88;;;27.17;;
52898;SDS011;38763;53.096;6.062;2023-05-07T04:28:16;43.20;;;22.85;;
52898;SDS011;38763;53.096;6.062;2023-05-07T04:30:41;50.33;;;26.95;;
52898;SDS011;38763;53.096;6.062;2023-05-07T04:33:07;55.28;;;28.85;;
52898;SDS011;38763;53.096;6.062;2023-05-07T04:35:32;48.13;;;27.67;;
52898;SDS011;38763;53.096;6.062;2023-05-07T04:37:58;51.65;;;29.60;;
52898;SDS011;38763;53.096;6.062;2023-05-07T04:40:24;50.10;;;27.55;;
52898;SDS011;38763;53.096;6.062;2023-05-07T04:42:50;50.40;;;27.60;;
52898;SDS011;38763;53.096;6.062;2023-05-07T04:45:16;51.53;;;28.38;;
52898;SDS011;38763;53.096;6.062;2023-05-07T04:47:42;49.08;;;26.65;;
52898;SDS011;38763;53.096;6.062;2023-05-07T04:50:07;48.22;;;25.50;;
52898;SDS011;38763;53.096;6.062;2023-05-07T04:52:33;55.72;;;28.63;;
52898;SDS011;38763;53.096;6.062;2023-05-07T04:54:59;46.97;;;26.25;;
52898;SDS011;38763;53.096;6.062;2023-05-07T04:57:25;51.55;;;26.17;;
52898;SDS011;38763;53.096;6.062;2023-05-07T04:59:52;52.97;;;28.67;;
52898;SDS011;38763;53.096;6.062;2023-05-07T05:02:18;54.05;;;28.75;;
52898;SDS011;38763;53.096;6.062;2023-05-07T05:04:43;54.13;;;28.75;;
52898;SDS011;38763;53.096;6.062;2023-05-07T05:07:09;48.78;;;28.38;;
52898;SDS011;38763;53.096;6.062;2023-05-07T05:09:35;55.15;;;28.95;;
52898;SDS011;38763;53.096;6.062;2023-05-07T05:12:01;56.28;;;30.33;;
52898;SDS011;38763;53.096;6.062;2023-05-07T05:14:26;56.85;;;29.88;;
52898;SDS011;38763;53.096;6.062;2023-05-07T05:16:52;44.53;;;23.95;;
52898;SDS011;38763;53.096;6.062;2023-05-07T05:19:17;48.50;;;26.63;;
52898;SDS011;38763;53.096;6.062;2023-05-07T05:21:43;51.42;;;25.02;;
52898;SDS011;38763;53.096;6.062;2023-05-07T05:24:09;53.75;;;28.73;;
52898;SDS011;38763;53.096;6.062;2023-05-07T05:26:35;50.60;;;26.15;;
52898;SDS011;38763;53.096;6.062;2023-05-07T05:29:00;50.20;;;28.80;;
52898;SDS011;38763;53.096;6.062;2023-05-07T05:31:26;50.13;;;26.20;;
52898;SDS011;38763;53.096;6.062;2023-05-07T05:33:51;51.17;;;27.52;;
52898;SDS011;38763;53.096;6.062;2023-05-07T05:36:17;53.05;;;27.10;;
52898;SDS011;38763;53.096;6.062;2023-05-07T05:38:43;48.72;;;26.65;;
52898;SDS011;38763;53.096;6.062;2023-05-07T05:41:09;41.28;;;23.08;;
52898;SDS011;38763;53.096;6.062;2023-05-07T05:43:35;44.35;;;22.85;;
52898;SDS011;38763;53.096;6.062;2023-05-07T05:46:01;41.85;;;22.92;;
52898;SDS011;38763;53.096;6.062;2023-05-07T05:48:27;43.63;;;24.08;;
52898;SDS011;38763;53.096;6.062;2023-05-07T05:50:53;47.15;;;26.88;;
52898;SDS011;38763;53.096;6.062;2023-05-07T05:53:19;43.85;;;24.83;;
52898;SDS011;38763;53.096;6.062;2023-05-07T05:55:45;46.03;;;26.25;;
52898;SDS011;38763;53.096;6.062;2023-05-07T05:58:11;44.05;;;25.02;;
52898;SDS011;38763;53.096;6.062;2023-05-07T06:00:37;41.92;;;23.92;;
52898;SDS011;38763;53.096;6.062;2023-05-07T06:03:02;41.88;;;24.80;;
52898;SDS011;38763;53.096;6.062;2023-05-07T06:05:28;45.42;;;25.58;;
52898;SDS011;38763;53.096;6.062;2023-05-07T06:07:54;42.70;;;24.20;;
52898;SDS011;38763;53.096;6.062;2023-05-07T06:10:19;45.83;;;25.50;;
52898;SDS011;38763;53.096;6.062;2023-05-07T06:12:45;39.20;;;21.60;;
52898;SDS011;38763;53.096;6.062;2023-05-07T06:15:11;44.95;;;24.90;;
52898;SDS011;38763;53.096;6.062;2023-05-07T06:17:36;40.08;;;22.98;;
52898;SDS011;38763;53.096;6.062;2023-05-07T06:20:02;45.38;;;22.73;;
52898;SDS011;38763;53.096;6.062;2023-05-07T06:22:28;41.28;;;22.35;;
52898;SDS011;38763;53.096;6.062;2023-05-07T06:24:54;40.67;;;23.42;;
52898;SDS011;38763;53.096;6.062;2023-05-07T06:27:19;35.22;;;20.38;;
52898;SDS011;38763;53.096;6.062;2023-05-07T06:29:47;37.83;;;22.52;;
52898;SDS011;38763;53.096;6.062;2023-05-07T06:32:13;41.40;;;23.77;;
52898;SDS011;38763;53.096;6.062;2023-05-07T06:34:39;36.72;;;22.55;;
52898;SDS011;38763;53.096;6.062;2023-05-07T06:37:05;40.60;;;23.65;;
52898;SDS011;38763;53.096;6.062;2023-05-07T06:39:31;37.83;;;23.08;;
52898;SDS011;38763;53.096;6.062;2023-05-07T06:41:58;39.70;;;21.90;;
52898;SDS011;38763;53.096;6.062;2023-05-07T06:44:24;33.28;;;18.02;;
52898;SDS011;38763;53.096;6.062;2023-05-07T06:46:50;37.13;;;20.33;;
52898;SDS011;38763;53.096;6.062;2023-05-07T06:49:16;35.67;;;20.90;;
52898;SDS011;38763;53.096;6.062;2023-05-07T06:51:41;32.15;;;18.05;;
52898;SDS011;38763;53.096;6.062;2023-05-07T06:54:07;33.53;;;20.00;;
52898;SDS011;38763;53.096;6.062;2023-05-07T06:56:33;32.33;;;19.85;;
52898;SDS011;38763;53.096;6.062;2023-05-07T06:58:59;27.70;;;16.73;;
52898;SDS011;38763;53.096;6.062;2023-05-07T07:01:25;33.80;;;18.83;;
52898;SDS011;38763;53.096;6.062;2023-05-07T07:03:51;33.83;;;20.02;;
52898;SDS011;38763;53.096;6.062;2023-05-07T07:06:17;35.83;;;20.88;;
52898;SDS011;38763;53.096;6.062;2023-05-07T07:08:42;33.30;;;21.23;;
52898;SDS011;38763;53.096;6.062;2023-05-07T07:11:09;31.15;;;18.23;;
52898;SDS011;38763;53.096;6.062;2023-05-07T07:13:35;36.33;;;21.50;;
52898;SDS011;38763;53.096;6.062;2023-05-07T07:16:01;33.13;;;20.92;;
52898;SDS011;38763;53.096;6.062;2023-05-07T07:18:27;29.65;;;17.88;;
52898;SDS011;38763;53.096;6.062;2023-05-07T07:20:53;30.77;;;20.05;;
52898;SDS011;38763;53.096;6.062;2023-05-07T07:23:19;32.65;;;19.33;;
52898;SDS011;38763;53.096;6.062;2023-05-07T07:25:45;32.83;;;20.25;;
52898;SDS011;38763;53.096;6.062;2023-05-07T07:28:10;33.47;;;20.48;;
52898;SDS011;38763;53.096;6.062;2023-05-07T07:30:36;30.63;;;17.63;;
52898;SDS011;38763;53.096;6.062;2023-05-07T07:33:02;35.55;;;21.05;;
52898;SDS011;38763;53.096;6.062;2023-05-07T07:35:31;29.80;;;17.58;;
52898;SDS011;38763;53.096;6.062;2023-05-07T07:37:57;30.90;;;18.75;;
52898;SDS011;38763;53.096;6.062;2023-05-07T07:40:23;28.75;;;17.40;;
52898;SDS011;38763;53.096;6.062;2023-05-07T07:42:50;32.00;;;20.45;;
52898;SDS011;38763;53.096;6.062;2023-05-07T07:45:18;30.73;;;20.20;;
52898;SDS011;38763;53.096;6.062;2023-05-07T07:47:44;30.40;;;19.83;;
52898;SDS011;38763;53.096;6.062;2023-05-07T07:50:10;28.10;;;17.48;;
52898;SDS011;38763;53.096;6.062;2023-05-07T07:52:35;31.73;;;19.88;;
52898;SDS011;38763;53.096;6.062;2023-05-07T07:55:01;29.27;;;18.05;;
52898;SDS011;38763;53.096;6.062;2023-05-07T07:57:27;30.85;;;19.05;;
52898;SDS011;38763;53.096;6.062;2023-05-07T07:59:53;26.08;;;14.70;;
52898;SDS011;38763;53.096;6.062;2023-05-07T08:02:18;30.00;;;16.55;;
52898;SDS011;38763;53.096;6.062;2023-05-07T08:04:45;27.65;;;17.63;;
52898;SDS011;38763;53.096;6.062;2023-05-07T08:07:11;29.45;;;16.95;;
52898;SDS011;38763;53.096;6.062;2023-05-07T08:09:37;29.02;;;18.88;;
52898;SDS011;38763;53.096;6.062;2023-05-07T08:12:03;25.27;;;16.73;;
52898;SDS011;38763;53.096;6.062;2023-05-07T08:14:30;27.95;;;18.30;;
52898;SDS011;38763;53.096;6.062;2023-05-07T08:16:55;29.00;;;18.20;;
52898;SDS011;38763;53.096;6.062;2023-05-07T08:19:21;26.55;;;15.85;;
52898;SDS011;38763;53.096;6.062;2023-05-07T08:21:47;25.20;;;16.10;;
52898;SDS011;38763;53.096;6.062;2023-05-07T08:24:14;28.20;;;18.15;;
52898;SDS011;38763;53.096;6.062;2023-05-07T08:26:40;25.60;;;16.65;;
52898;SDS011;38763;53.096;6.062;2023-05-07T08:29:06;22.92;;;14.32;;
52898;SDS011;38763;53.096;6.062;2023-05-07T08:31:31;29.33;;;18.40;;
52898;SDS011;38763;53.096;6.062;2023-05-07T08:33:57;25.00;;;16.17;;
52898;SDS011;38763;53.096;6.062;2023-05-07T08:36:23;27.40;;;17.70;;
52898;SDS011;38763;53.096;6.062;2023-05-07T08:38:49;22.30;;;14.32;;
52898;SDS011;38763;53.096;6.062;2023-05-07T08:41:15;27.85;;;17.80;;
52898;SDS011;38763;53.096;6.062;2023-05-07T08:43:41;26.08;;;16.67;;
52898;SDS011;38763;53.096;6.062;2023-05-07T08:46:09;24.85;;;15.43;;
52898;SDS011;38763;53.096;6.062;2023-05-07T08:48:36;24.88;;;14.68;;
52898;SDS011;38763;53.096;6.062;2023-05-07T08:51:02;28.95;;;18.10;;
52898;SDS011;38763;53.096;6.062;2023-05-07T08:53:28;26.83;;;16.27;;
52898;SDS011;38763;53.096;6.062;2023-05-07T08:55:53;27.33;;;17.15;;
52898;SDS011;38763;53.096;6.062;2023-05-07T08:58:20;24.42;;;15.10;;
52898;SDS011;38763;53.096;6.062;2023-05-07T09:00:46;30.73;;;17.67;;
52898;SDS011;38763;53.096;6.062;2023-05-07T09:03:12;21.77;;;13.80;;
52898;SDS011;38763;53.096;6.062;2023-05-07T09:05:39;25.77;;;16.00;;
52898;SDS011;38763;53.096;6.062;2023-05-07T09:08:05;28.48;;;17.02;;
52898;SDS011;38763;53.096;6.062;2023-05-07T09:10:33;26.88;;;16.65;;
52898;SDS011;38763;53.096;6.062;2023-05-07T09:12:59;26.80;;;18.30;;
52898;SDS011;38763;53.096;6.062;2023-05-07T09:15:25;23.60;;;13.60;;
52898;SDS011;38763;53.096;6.062;2023-05-07T09:17:53;24.77;;;15.85;;
52898;SDS011;38763;53.096;6.062;2023-05-07T09:20:18;23.40;;;15.77;;
52898;SDS011;38763;53.096;6.062;2023-05-07T09:22:44;25.50;;;17.42;;
52898;SDS011;38763;53.096;6.062;2023-05-07T09:25:10;24.25;;;15.70;;
52898;SDS011;38763;53.096;6.062;2023-05-07T09:27:36;23.92;;;15.93;;
52898;SDS011;38763;53.096;6.062;2023-05-07T09:30:05;27.15;;;15.93;;
52898;SDS011;38763;53.096;6.062;2023-05-07T09:32:34;25.88;;;16.95;;
52898;SDS011;38763;53.096;6.062;2023-05-07T09:35:00;23.58;;;15.73;;
52898;SDS011;38763;53.096;6.062;2023-05-07T09:37:28;27.55;;;18.50;;
52898;SDS011;38763;53.096;6.062;2023-05-07T09:39:56;25.38;;;16.75;;
52898;SDS011;38763;53.096;6.062;2023-05-07T09:42:23;25.20;;;15.48;;
52898;SDS011;38763;53.096;6.062;2023-05-07T09:44:51;22.92;;;15.45;;
52898;SDS011;38763;53.096;6.062;2023-05-07T09:47:18;27.45;;;17.90;;
52898;SDS011;38763;53.096;6.062;2023-05-07T09:49:46;25.73;;;17.27;;
52898;SDS011;38763;53.096;6.062;2023-05-07T09:52:13;24.33;;;15.43;;
52898;SDS011;38763;53.096;6.062;2023-05-07T09:54:40;26.63;;;15.32;;
52898;SDS011;38763;53.096;6.062;2023-05-07T09:57:08;26.75;;;17.02;;
52898;SDS011;38763;53.096;6.062;2023-05-07T09:59:37;27.73;;;16.92;;
52898;SDS011;38763;53.096;6.062;2023-05-07T10:02:03;24.60;;;15.85;;
52898;SDS011;38763;53.096;6.062;2023-05-07T10:04:30;27.65;;;17.63;;
52898;SDS011;38763;53.096;6.062;2023-05-07T10:06:56;23.67;;;15.30;;
52898;SDS011;38763;53.096;6.062;2023-05-07T10:09:23;28.42;;;16.98;;
52898;SDS011;38763;53.096;6.062;2023-05-07T10:11:51;25.00;;;15.93;;
52898;SDS011;38763;53.096;6.062;2023-05-07T10:14:16;29.52;;;17.70;;
52898;SDS011;38763;53.096;6.062;2023-05-07T10:16:43;23.63;;;16.40;;
52898;SDS011;38763;53.096;6.062;2023-05-07T10:19:09;27.90;;;17.70;;
52898;SDS011;38763;53.096;6.062;2023-05-07T10:21:47;25.80;;;16.92;;
52898;SDS011;38763;53.096;6.062;2023-05-07T10:24:25;24.65;;;15.27;;
52898;SDS011;38763;53.096;6.062;2023-05-07T10:26:54;21.77;;;15.07;;
52898;SDS011;38763;53.096;6.062;2023-05-07T10:29:25;27.02;;;17.35;;
52898;SDS011;38763;53.096;6.062;2023-05-07T10:35:01;23.50;;;14.88;;
52898;SDS011;38763;53.096;6.062;2023-05-07T10:37:29;26.88;;;16.77;;
52898;SDS011;38763;53.096;6.062;2023-05-07T10:39:56;24.23;;;16.17;;
52898;SDS011;38763;53.096;6.062;2023-05-07T10:42:22;23.33;;;15.52;;
52898;SDS011;38763;53.096;6.062;2023-05-07T10:44:48;27.30;;;18.20;;
52898;SDS011;38763;53.096;6.062;2023-05-07T10:47:15;25.98;;;17.25;;
52898;SDS011;38763;53.096;6.062;2023-05-07T10:52:15;24.85;;;17.73;;
52898;SDS011;38763;53.096;6.062;2023-05-07T10:54:45;22.77;;;15.07;;
52898;SDS011;38763;53.096;6.062;2023-05-07T10:57:45;24.73;;;16.52;;
52898;SDS011;38763;53.096;6.062;2023-05-07T11:00:04;24.77;;;17.15;;
52898;SDS011;38763;53.096;6.062;2023-05-07T11:05:25;27.60;;;17.38;;
52898;SDS011;38763;53.096;6.062;2023-05-07T11:07:55;25.33;;;17.45;;
52898;SDS011;38763;53.096;6.062;2023-05-07T11:10:22;23.65;;;16.73;;
52898;SDS011;38763;53.096;6.062;2023-05-07T11:12:51;23.40;;;15.40;;
52898;SDS011;38763;53.096;6.062;2023-05-07T11:15:33;21.52;;;15.45;;
52898;SDS011;38763;53.096;6.062;2023-05-07T11:18:03;22.98;;;14.90;;
52898;SDS011;38763;53.096;6.062;2023-05-07T11:28:27;23.67;;;16.10;;
52898;SDS011;38763;53.096;6.062;2023-05-07T11:30:54;21.63;;;14.55;;
52898;SDS011;38763;53.096;6.062;2023-05-07T11:33:21;22.98;;;15.70;;
52898;SDS011;38763;53.096;6.062;2023-05-07T11:35:47;21.90;;;13.93;;
52898;SDS011;38763;53.096;6.062;2023-05-07T11:38:14;21.58;;;14.68;;
52898;SDS011;38763;53.096;6.062;2023-05-07T11:40:52;22.30;;;15.15;;
52898;SDS011;38763;53.096;6.062;2023-05-07T11:43:19;22.08;;;14.23;;
52898;SDS011;38763;53.096;6.062;2023-05-07T11:45:47;21.85;;;13.90;;
52898;SDS011;38763;53.096;6.062;2023-05-07T11:48:14;19.33;;;13.60;;
52898;SDS011;38763;53.096;6.062;2023-05-07T11:50:59;19.80;;;14.45;;
52898;SDS011;38763;53.096;6.062;2023-05-07T11:53:27;22.17;;;14.68;;
52898;SDS011;38763;53.096;6.062;2023-05-07T11:55:59;20.95;;;13.90;;
52898;SDS011;38763;53.096;6.062;2023-05-07T11:58:25;21.30;;;14.55;;
52898;SDS011;38763;53.096;6.062;2023-05-07T12:00:54;21.77;;;14.38;;
52898;SDS011;38763;53.096;6.062;2023-05-07T12:03:20;19.65;;;13.85;;
52898;SDS011;38763;53.096;6.062;2023-05-07T12:05:46;20.33;;;13.90;;
52898;SDS011;38763;53.096;6.062;2023-05-07T12:08:15;19.60;;;13.40;;
52898;SDS011;38763;53.096;6.062;2023-05-07T12:10:42;20.63;;;14.30;;
52898;SDS011;38763;53.096;6.062;2023-05-07T12:15:42;19.30;;;12.93;;
52898;SDS011;38763;53.096;6.062;2023-05-07T12:18:10;18.58;;;12.63;;
52898;SDS011;38763;53.096;6.062;2023-05-07T12:20:37;20.20;;;12.75;;
52898;SDS011;38763;53.096;6.062;2023-05-07T12:23:03;19.58;;;13.18;;
52898;SDS011;38763;53.096;6.062;2023-05-07T12:25:34;17.95;;;11.77;;
52898;SDS011;38763;53.096;6.062;2023-05-07T12:28:01;18.85;;;12.95;;
52898;SDS011;38763;53.096;6.062;2023-05-07T12:30:27;18.63;;;11.98;;
52898;SDS011;38763;53.096;6.062;2023-05-07T12:32:53;19.00;;;12.60;;
52898;SDS011;38763;53.096;6.062;2023-05-07T12:35:29;19.33;;;12.27;;
52898;SDS011;38763;53.096;6.062;2023-05-07T12:37:56;17.67;;;11.35;;
52898;SDS011;38763;53.096;6.062;2023-05-07T12:40:24;18.73;;;12.48;;
52898;SDS011;38763;53.096;6.062;2023-05-07T12:43:06;16.92;;;10.70;;
52898;SDS011;38763;53.096;6.062;2023-05-07T12:45:38;17.88;;;12.00;;
52898;SDS011;38763;53.096;6.062;2023-05-07T12:48:06;16.38;;;10.82;;
52898;SDS011;38763;53.096;6.062;2023-05-07T12:50:32;17.02;;;10.93;;
52898;SDS011;38763;53.096;6.062;2023-05-07T12:52:58;17.42;;;10.70;;
52898;SDS011;38763;53.096;6.062;2023-05-07T12:55:24;15.82;;;11.23;;
52898;SDS011;38763;53.096;6.062;2023-05-07T12:57:50;17.58;;;11.55;;
52898;SDS011;38763;53.096;6.062;2023-05-07T13:00:16;17.40;;;11.60;;
52898;SDS011;38763;53.096;6.062;2023-05-07T13:02:43;16.70;;;11.00;;
52898;SDS011;38763;53.096;6.062;2023-05-07T13:05:12;15.77;;;10.45;;
52898;SDS011;38763;53.096;6.062;2023-05-07T13:07:39;22.35;;;11.57;;
52898;SDS011;38763;53.096;6.062;2023-05-07T13:10:05;15.25;;;9.55;;
52898;SDS011;38763;53.096;6.062;2023-05-07T13:12:32;19.17;;;12.35;;
52898;SDS011;38763;53.096;6.062;2023-05-07T13:14:57;18.15;;;12.27;;
52898;SDS011;38763;53.096;6.062;2023-05-07T13:17:24;17.65;;;11.60;;
52898;SDS011;38763;53.096;6.062;2023-05-07T13:19:49;18.33;;;10.40;;
52898;SDS011;38763;53.096;6.062;2023-05-07T13:22:15;17.23;;;11.70;;
52898;SDS011;38763;53.096;6.062;2023-05-07T13:24:40;17.17;;;11.68;;
52898;SDS011;38763;53.096;6.062;2023-05-07T13:27:08;15.68;;;10.13;;
52898;SDS011;38763;53.096;6.062;2023-05-07T13:29:34;13.02;;;8.23;;
52898;SDS011;38763;53.096;6.062;2023-05-07T13:31:59;15.40;;;11.00;;
52898;SDS011;38763;53.096;6.062;2023-05-07T13:34:25;18.02;;;11.48;;
52898;SDS011;38763;53.096;6.062;2023-05-07T13:36:51;15.13;;;10.88;;
52898;SDS011;38763;53.096;6.062;2023-05-07T13:39:17;16.27;;;11.13;;
52898;SDS011;38763;53.096;6.062;2023-05-07T13:41:42;16.80;;;11.63;;
52898;SDS011;38763;53.096;6.062;2023-05-07T13:44:08;14.32;;;10.55;;
52898;SDS011;38763;53.096;6.062;2023-05-07T13:46:34;15.85;;;10.30;;
52898;SDS011;38763;53.096;6.062;2023-05-07T13:48:59;14.13;;;9.13;;
52898;SDS011;38763;53.096;6.062;2023-05-07T13:51:25;17.35;;;11.65;;
52898;SDS011;38763;53.096;6.062;2023-05-07T13:53:51;15.57;;;10.65;;
52898;SDS011;38763;53.096;6.062;2023-05-07T13:56:17;17.65;;;11.13;;
52898;SDS011;38763;53.096;6.062;2023-05-07T13:58:43;18.48;;;10.70;;
52898;SDS011;38763;53.096;6.062;2023-05-07T14:01:08;13.68;;;9.20;;
52898;SDS011;38763;53.096;6.062;2023-05-07T14:03:35;16.60;;;12.23;;
52898;SDS011;38763;53.096;6.062;2023-05-07T14:06:04;17.45;;;12.52;;
52898;SDS011;38763;53.096;6.062;2023-05-07T14:08:30;14.30;;;10.43;;
52898;SDS011;38763;53.096;6.062;2023-05-07T14:10:57;16.95;;;11.93;;
52898;SDS011;38763;53.096;6.062;2023-05-07T14:13:23;17.27;;;11.80;;
52898;SDS011;38763;53.096;6.062;2023-05-07T14:15:48;19.00;;;12.10;;
52898;SDS011;38763;53.096;6.062;2023-05-07T14:18:14;19.23;;;12.10;;
52898;SDS011;38763;53.096;6.062;2023-05-07T14:20:41;17.48;;;11.85;;
52898;SDS011;38763;53.096;6.062;2023-05-07T14:23:11;17.77;;;12.05;;
52898;SDS011;38763;53.096;6.062;2023-05-07T14:25:37;17.20;;;12.73;;
52898;SDS011;38763;53.096;6.062;2023-05-07T14:28:03;19.45;;;12.45;;
52898;SDS011;38763;53.096;6.062;2023-05-07T14:30:28;22.88;;;12.90;;
52898;SDS011;38763;53.096;6.062;2023-05-07T14:32:54;17.38;;;10.50;;
52898;SDS011;38763;53.096;6.062;2023-05-07T14:35:20;16.67;;;11.00;;
52898;SDS011;38763;53.096;6.062;2023-05-07T14:37:45;20.15;;;14.52;;